^^
Station Historical Data
Daily Summary for July 6, 2017 Units:  Both    English   Metric
« Previous Day
Next Day »
Daily Weekly Monthly Yearly Custom
  High: Low: Average:
Temperature: 69.3 °F /  20.7 °C 39.6 °F /  4.2 °C 53.9 °F /  12.2 °C
Dew Point: 34.7 °F /  1.5 °C 26.1 °F /  -3.3 °C 30.8 °F /  -0.7 °C
Humidity: 71% 25% 44%
Wind Speed: 13.0mph /  20.9km/h - 1.8mph /  2.9km/h
Wind Gust: 19.0mph /  30.6km/h - -
Wind- - East
Pressure: 30.52 in /  1033.4 hPa 30.35 in /  1027.7 hPa -
Precipitation: 0.00 in /  0 mm    
Historical Graphs
 
 
Tabular Data for July 6, 2017
Time Temperature Dew Point Pressure Wind Wind Speed Wind Gust Humidity Rainfall Rate (Hourly) solar Conditions
00:00 45.9 °F /  7.7 °C 28.2 °F /  -2.1 °C 30.50in /  1032.7hPa Calm     50% 0.00in /  0mm 0.0 W/m2
00:06 45.9 °F /  7.7 °C 28.2 °F /  -2.1 °C 30.50in /  1032.7hPa Calm     50% 0.00in /  0mm 0.0 W/m2
00:12 45.9 °F /  7.7 °C 28.2 °F /  -2.1 °C 30.50in /  1032.7hPa Calm     50% 0.00in /  0mm 0.0 W/m2
00:19 45.7 °F /  7.6 °C 28.6 °F /  -1.9 °C 30.50in /  1032.7hPa Calm     51% 0.00in /  0mm 0.0 W/m2
00:25 45.5 °F /  7.5 °C 28.4 °F /  -2 °C 30.50in /  1032.7hPa Calm     51% 0.00in /  0mm 0.0 W/m2
00:31 45.3 °F /  7.4 °C 28.8 °F /  -1.8 °C 30.49in /  1032.4hPa Calm     52% 0.00in /  0mm 0.0 W/m2
00:37 45.1 °F /  7.3 °C 28.6 °F /  -1.9 °C 30.49in /  1032.4hPa Calm     52% 0.00in /  0mm 0.0 W/m2
00:43 45.0 °F /  7.2 °C 28.9 °F /  -1.7 °C 30.49in /  1032.4hPa Calm     53% 0.00in /  0mm 0.0 W/m2
00:49 44.8 °F /  7.1 °C 28.8 °F /  -1.8 °C 30.49in /  1032.4hPa Calm     53% 0.00in /  0mm 0.0 W/m2
00:55 44.6 °F /  7 °C 28.9 °F /  -1.7 °C 30.49in /  1032.4hPa Calm     54% 0.00in /  0mm 0.0 W/m2
01:01 44.4 °F /  6.9 °C 28.8 °F /  -1.8 °C 30.49in /  1032.4hPa Calm     54% 0.00in /  0mm 0.0 W/m2
01:07 44.2 °F /  6.8 °C 29.1 °F /  -1.6 °C 30.49in /  1032.4hPa Calm     55% 0.00in /  0mm 0.0 W/m2
01:14 44.2 °F /  6.8 °C 29.1 °F /  -1.6 °C 30.49in /  1032.4hPa Calm     55% 0.00in /  0mm 0.0 W/m2
01:20 44.2 °F /  6.8 °C 29.1 °F /  -1.6 °C 30.48in /  1032.1hPa Calm     55% 0.00in /  0mm 0.0 W/m2
01:26 44.2 °F /  6.8 °C 29.1 °F /  -1.6 °C 30.48in /  1032.1hPa Calm     55% 0.00in /  0mm 0.0 W/m2
01:32 44.2 °F /  6.8 °C 29.5 °F /  -1.4 °C 30.48in /  1032.1hPa Calm   1.0mph /  1.6km/h 56% 0.00in /  0mm 0.0 W/m2
01:38 44.2 °F /  6.8 °C 29.5 °F /  -1.4 °C 30.48in /  1032.1hPa Calm   1.0mph /  1.6km/h 56% 0.00in /  0mm 0.0 W/m2
01:44 44.2 °F /  6.8 °C 29.5 °F /  -1.4 °C 30.48in /  1032.1hPa Calm   1.0mph /  1.6km/h 56% 0.00in /  0mm 0.0 W/m2
01:51 44.4 °F /  6.9 °C 29.7 °F /  -1.3 °C 30.48in /  1032.1hPa Calm     56% 0.00in /  0mm 0.0 W/m2
01:57 44.2 °F /  6.8 °C 29.5 °F /  -1.4 °C 30.48in /  1032.1hPa Calm   1.0mph /  1.6km/h 56% 0.00in /  0mm 0.0 W/m2
02:03 44.2 °F /  6.8 °C 29.5 °F /  -1.4 °C 30.48in /  1032.1hPa Calm     56% 0.00in /  0mm 0.0 W/m2
02:09 44.2 °F /  6.8 °C 30.0 °F /  -1.1 °C 30.48in /  1032.1hPa Calm   1.0mph /  1.6km/h 57% 0.00in /  0mm 0.0 W/m2
02:15 44.1 °F /  6.7 °C 29.8 °F /  -1.2 °C 30.48in /  1032.1hPa Calm   1.0mph /  1.6km/h 57% 0.00in /  0mm 0.0 W/m2
02:21 43.9 °F /  6.6 °C 29.7 °F /  -1.3 °C 30.48in /  1032.1hPa Calm     57% 0.00in /  0mm 0.0 W/m2
02:27 43.9 °F /  6.6 °C 29.7 °F /  -1.3 °C 30.49in /  1032.4hPa Calm   1.0mph /  1.6km/h 57% 0.00in /  0mm 0.0 W/m2
02:34 43.7 °F /  6.5 °C 29.8 °F /  -1.2 °C 30.48in /  1032.1hPa Calm   1.0mph /  1.6km/h 58% 0.00in /  0mm 0.0 W/m2
02:40 43.7 °F /  6.5 °C 29.8 °F /  -1.2 °C 30.49in /  1032.4hPa Calm   1.0mph /  1.6km/h 58% 0.00in /  0mm 0.0 W/m2
02:46 43.7 °F /  6.5 °C 29.8 °F /  -1.2 °C 30.48in /  1032.1hPa Calm     58% 0.00in /  0mm 0.0 W/m2
02:52 43.5 °F /  6.4 °C 29.7 °F /  -1.3 °C 30.48in /  1032.1hPa Calm     58% 0.00in /  0mm 0.0 W/m2
02:58 43.5 °F /  6.4 °C 29.7 °F /  -1.3 °C 30.49in /  1032.4hPa Calm     58% 0.00in /  0mm 0.0 W/m2
03:04 43.3 °F /  6.3 °C 30.0 °F /  -1.1 °C 30.49in /  1032.4hPa Calm     59% 0.00in /  0mm 0.0 W/m2
03:10 43.2 °F /  6.2 °C 29.8 °F /  -1.2 °C 30.49in /  1032.4hPa Calm     59% 0.00in /  0mm 0.0 W/m2
03:17 43.0 °F /  6.1 °C 30.0 °F /  -1.1 °C 30.49in /  1032.4hPa Calm     60% 0.00in /  0mm 0.0 W/m2
03:23 42.8 °F /  6 °C 29.8 °F /  -1.2 °C 30.49in /  1032.4hPa Calm     60% 0.00in /  0mm 0.0 W/m2
03:29 42.6 °F /  5.9 °C 29.7 °F /  -1.3 °C 30.49in /  1032.4hPa Calm     60% 0.00in /  0mm 0.0 W/m2
03:35 42.4 °F /  5.8 °C 30.0 °F /  -1.1 °C 30.49in /  1032.4hPa Calm     61% 0.00in /  0mm 0.0 W/m2
03:41 42.3 °F /  5.7 °C 29.8 °F /  -1.2 °C 30.49in /  1032.4hPa Calm     61% 0.00in /  0mm 0.0 W/m2
03:47 42.3 °F /  5.7 °C 30.2 °F /  -1 °C 30.48in /  1032.1hPa East 0.9mph /  1.4km/h 1.0mph /  1.6km/h 62% 0.00in /  0mm 0.0 W/m2
03:54 42.3 °F /  5.7 °C 30.2 °F /  -1 °C 30.48in /  1032.1hPa Calm     62% 0.00in /  0mm 0.0 W/m2
04:00 42.1 °F /  5.6 °C 30.0 °F /  -1.1 °C 30.48in /  1032.1hPa Calm   2.0mph /  3.2km/h 62% 0.00in /  0mm 0.0 W/m2
04:06 42.1 °F /  5.6 °C 30.0 °F /  -1.1 °C 30.48in /  1032.1hPa Calm   2.0mph /  3.2km/h 62% 0.00in /  0mm 0.0 W/m2
04:12 42.1 °F /  5.6 °C 30.0 °F /  -1.1 °C 30.48in /  1032.1hPa Calm   1.0mph /  1.6km/h 62% 0.00in /  0mm 0.0 W/m2
04:18 41.9 °F /  5.5 °C 29.8 °F /  -1.2 °C 30.48in /  1032.1hPa Calm   1.0mph /  1.6km/h 62% 0.00in /  0mm 0.0 W/m2
04:24 41.9 °F /  5.5 °C 30.2 °F /  -1 °C 30.48in /  1032.1hPa Calm   1.0mph /  1.6km/h 63% 0.00in /  0mm 0.0 W/m2
04:30 41.7 °F /  5.4 °C 30.0 °F /  -1.1 °C 30.47in /  1031.7hPa Calm     63% 0.00in /  0mm 0.0 W/m2
04:36 41.5 °F /  5.3 °C 29.8 °F /  -1.2 °C 30.48in /  1032.1hPa Calm     63% 0.00in /  0mm 0.0 W/m2
04:43 41.4 °F /  5.2 °C 30.0 °F /  -1.1 °C 30.48in /  1032.1hPa Calm     64% 0.00in /  0mm 0.0 W/m2
04:49 41.4 °F /  5.2 °C 30.0 °F /  -1.1 °C 30.48in /  1032.1hPa Calm   1.0mph /  1.6km/h 64% 0.00in /  0mm 0.0 W/m2
04:55 41.2 °F /  5.1 °C 30.4 °F /  -0.9 °C 30.48in /  1032.1hPa Calm     65% 0.00in /  0mm 0.0 W/m2
05:01 41.0 °F /  5 °C 30.2 °F /  -1 °C 30.48in /  1032.1hPa Calm     65% 0.00in /  0mm 0.0 W/m2
05:07 40.8 °F /  4.9 °C 30.0 °F /  -1.1 °C 30.49in /  1032.4hPa Calm     65% 0.00in /  0mm 0.0 W/m2
05:13 40.6 °F /  4.8 °C 30.2 °F /  -1 °C 30.49in /  1032.4hPa Calm     66% 0.00in /  0mm 0.0 W/m2
05:19 40.6 °F /  4.8 °C 30.2 °F /  -1 °C 30.49in /  1032.4hPa Calm     66% 0.00in /  0mm 0.0 W/m2
05:26 40.5 °F /  4.7 °C 30.0 °F /  -1.1 °C 30.49in /  1032.4hPa Calm     66% 0.00in /  0mm 0.0 W/m2
05:32 40.5 °F /  4.7 °C 30.0 °F /  -1.1 °C 30.49in /  1032.4hPa Calm     66% 0.00in /  0mm 0.0 W/m2
05:38 40.3 °F /  4.6 °C 29.8 °F /  -1.2 °C 30.49in /  1032.4hPa Calm     66% 0.00in /  0mm 0.0 W/m2
05:44 39.9 °F /  4.4 °C 29.5 °F /  -1.4 °C 30.49in /  1032.4hPa Calm     66% 0.00in /  0mm 0.0 W/m2
05:50 39.7 °F /  4.3 °C 29.7 °F /  -1.3 °C 30.49in /  1032.4hPa Calm     67% 0.00in /  0mm 0.0 W/m2
05:57 39.6 °F /  4.2 °C 29.8 °F /  -1.2 °C 30.49in /  1032.4hPa Calm     68% 0.00in /  0mm 0.0 W/m2
06:03 39.6 °F /  4.2 °C 30.2 °F /  -1 °C 30.50in /  1032.7hPa Calm     69% 0.00in /  0mm 0.0 W/m2
06:09 39.6 °F /  4.2 °C 30.2 °F /  -1 °C 30.50in /  1032.7hPa Calm     69% 0.00in /  0mm 0.0 W/m2
06:15 39.6 °F /  4.2 °C 30.2 °F /  -1 °C 30.50in /  1032.7hPa Calm     69% 0.00in /  0mm 0.0 W/m2
06:21 39.6 °F /  4.2 °C 30.2 °F /  -1 °C 30.50in /  1032.7hPa Calm     69% 0.00in /  0mm 0.0 W/m2
06:27 39.7 °F /  4.3 °C 30.4 °F /  -0.9 °C 30.50in /  1032.7hPa Calm     69% 0.00in /  0mm 0.0 W/m2
06:33 39.9 °F /  4.4 °C 30.6 °F /  -0.8 °C 30.51in /  1033.1hPa Calm     69% 0.00in /  0mm 0.0 W/m2
06:39 39.9 °F /  4.4 °C 30.6 °F /  -0.8 °C 30.51in /  1033.1hPa Calm     69% 0.00in /  0mm 5.0 W/m2
06:45 40.1 °F /  4.5 °C 30.7 °F /  -0.7 °C 30.51in /  1033.1hPa Calm     69% 0.00in /  0mm 9.0 W/m2
06:51 40.5 °F /  4.7 °C 31.8 °F /  -0.1 °C 30.50in /  1032.7hPa Calm   3.0mph /  4.8km/h 71% 0.00in /  0mm 11.0 W/m2
06:58 41.5 °F /  5.3 °C 32.5 °F /  0.3 °C 30.51in /  1033.1hPa Calm   5.0mph /  8km/h 70% 0.00in /  0mm 14.0 W/m2
07:04 43.0 °F /  6.1 °C 32.7 °F /  0.4 °C 30.51in /  1033.1hPa Calm   3.0mph /  4.8km/h 67% 0.00in /  0mm 16.0 W/m2
07:10 43.9 °F /  6.6 °C 32.9 °F /  0.5 °C 30.51in /  1033.1hPa Calm   2.0mph /  3.2km/h 65% 0.00in /  0mm 18.0 W/m2
07:16 44.2 °F /  6.8 °C 32.9 °F /  0.5 °C 30.51in /  1033.1hPa Calm     64% 0.00in /  0mm 19.0 W/m2
07:22 44.4 °F /  6.9 °C 33.1 °F /  0.6 °C 30.51in /  1033.1hPa Calm     64% 0.00in /  0mm 21.0 W/m2
07:28 44.4 °F /  6.9 °C 32.5 °F /  0.3 °C 30.51in /  1033.1hPa Calm     63% 0.00in /  0mm 23.0 W/m2
07:34 44.6 °F /  7 °C 32.7 °F /  0.4 °C 30.51in /  1033.1hPa ESE 0.9mph /  1.4km/h 2.0mph /  3.2km/h 63% 0.00in /  0mm 25.0 W/m2
07:41 45.1 °F /  7.3 °C 33.3 °F /  0.7 °C 30.51in /  1033.1hPa Calm   2.0mph /  3.2km/h 63% 0.00in /  0mm 26.0 W/m2
07:47 46.0 °F /  7.8 °C 33.3 °F /  0.7 °C 30.51in /  1033.1hPa Calm   4.0mph /  6.4km/h 61% 0.00in /  0mm 28.0 W/m2
07:53 46.8 °F /  8.2 °C 33.6 °F /  0.9 °C 30.52in /  1033.4hPa Calm   3.0mph /  4.8km/h 60% 0.00in /  0mm 30.0 W/m2
07:59 47.7 °F /  8.7 °C 33.6 °F /  0.9 °C 30.51in /  1033.1hPa NE 0.9mph /  1.4km/h 2.0mph /  3.2km/h 58% 0.00in /  0mm 33.0 W/m2
08:05 49.5 °F /  9.7 °C 34.3 °F /  1.3 °C 30.52in /  1033.4hPa Calm   1.0mph /  1.6km/h 56% 0.00in /  0mm 264.0 W/m2
08:11 51.1 °F /  10.6 °C 34.5 °F /  1.4 °C 30.52in /  1033.4hPa Calm     53% 0.00in /  0mm 295.0 W/m2
08:17 52.3 °F /  11.3 °C 34.2 °F /  1.2 °C 30.52in /  1033.4hPa Calm   3.0mph /  4.8km/h 50% 0.00in /  0mm 318.0 W/m2
08:23 53.8 °F /  12.1 °C 34.5 °F /  1.4 °C 30.52in /  1033.4hPa North 2.0mph /  3.2km/h 7.0mph /  11.3km/h 48% 0.00in /  0mm 336.0 W/m2
08:29 55.0 °F /  12.8 °C 34.7 °F /  1.5 °C 30.52in /  1033.4hPa NE 4.0mph /  6.4km/h 5.0mph /  8km/h 46% 0.00in /  0mm 353.0 W/m2
08:36 56.1 °F /  13.4 °C 34.5 °F /  1.4 °C 30.52in /  1033.4hPa NE 2.0mph /  3.2km/h 6.0mph /  9.7km/h 44% 0.00in /  0mm 373.0 W/m2
08:42 57.0 °F /  13.9 °C 34.2 °F /  1.2 °C 30.52in /  1033.4hPa NE 2.9mph /  4.7km/h 7.0mph /  11.3km/h 42% 0.00in /  0mm 390.0 W/m2
08:48 57.9 °F /  14.4 °C 34.3 °F /  1.3 °C 30.52in /  1033.4hPa NNE 2.0mph /  3.2km/h 11.0mph /  17.7km/h 41% 0.00in /  0mm 410.0 W/m2
08:54 58.6 °F /  14.8 °C 34.3 °F /  1.3 °C 30.52in /  1033.4hPa ESE 0.9mph /  1.4km/h 8.0mph /  12.9km/h 40% 0.00in /  0mm 425.0 W/m2
09:00 59.2 °F /  15.1 °C 34.2 °F /  1.2 °C 30.51in /  1033.1hPa SE 4.9mph /  7.9km/h 7.0mph /  11.3km/h 39% 0.00in /  0mm 443.0 W/m2
09:06 59.5 °F /  15.3 °C 34.5 °F /  1.4 °C 30.51in /  1033.1hPa SSE 8.1mph /  13km/h 11.0mph /  17.7km/h 39% 0.00in /  0mm 461.0 W/m2
09:18 60.1 °F /  15.6 °C 34.3 °F /  1.3 °C 30.51in /  1033.1hPa East 4.0mph /  6.4km/h 10.0mph /  16.1km/h 38% 0.00in /  0mm 490.0 W/m2
09:25 60.3 °F /  15.7 °C 33.8 °F /  1 °C 30.51in /  1033.1hPa SE 11.0mph /  17.7km/h 15.0mph /  24.1km/h 37% 0.00in /  0mm 506.0 W/m2
09:31 60.3 °F /  15.7 °C 33.8 °F /  1 °C 30.51in /  1033.1hPa ENE 10.1mph /  16.3km/h 14.0mph /  22.5km/h 37% 0.00in /  0mm 522.0 W/m2
09:37 60.4 °F /  15.8 °C 34.0 °F /  1.1 °C 30.51in /  1033.1hPa Calm   13.0mph /  20.9km/h 37% 0.00in /  0mm 533.0 W/m2
09:43 61.0 °F /  16.1 °C 34.5 °F /  1.4 °C 30.51in /  1033.1hPa ESE 4.9mph /  7.9km/h 17.0mph /  27.4km/h 37% 0.00in /  0mm 545.0 W/m2
09:49 61.2 °F /  16.2 °C 34.0 °F /  1.1 °C 30.51in /  1033.1hPa ENE 4.9mph /  7.9km/h 12.0mph /  19.3km/h 36% 0.00in /  0mm 559.0 W/m2
10:11 62.2 °F /  16.8 °C 33.4 °F /  0.8 °C 30.50in /  1032.7hPa NE 6.0mph /  9.7km/h 15.0mph /  24.1km/h 34% 0.00in /  0mm 606.0 W/m2
10:18 62.2 °F /  16.8 °C 34.2 °F /  1.2 °C 30.50in /  1032.7hPa ESE 12.1mph /  19.5km/h 16.0mph /  25.7km/h 35% 0.00in /  0mm 615.0 W/m2
10:22 62.2 °F /  16.8 °C 33.4 °F /  0.8 °C 30.49in /  1032.4hPa SE 11.0mph /  17.7km/h 14.0mph /  22.5km/h 34% 0.00in /  0mm 621.0 W/m2
10:28 62.6 °F /  17 °C 33.8 °F /  1 °C 30.49in /  1032.4hPa ENE 8.1mph /  13km/h 15.0mph /  24.1km/h 34% 0.00in /  0mm 633.0 W/m2
10:30 62.8 °F /  17.1 °C 34.7 °F /  1.5 °C 30.49in /  1032.4hPa ENE 8.1mph /  13km/h 10.0mph /  16.1km/h 35% 0.00in /  0mm 631.0 W/m2
10:34 63.0 °F /  17.2 °C 34.2 °F /  1.2 °C 30.49in /  1032.4hPa ENE 6.0mph /  9.7km/h 15.0mph /  24.1km/h 34% 0.00in /  0mm 638.0 W/m2
10:36 63.1 °F /  17.3 °C 34.3 °F /  1.3 °C 30.49in /  1032.4hPa East 8.9mph /  14.3km/h 11.0mph /  17.7km/h 34% 0.00in /  0mm 642.0 W/m2
10:38 63.3 °F /  17.4 °C 34.5 °F /  1.4 °C 30.48in /  1032.1hPa NE 4.0mph /  6.4km/h 13.0mph /  20.9km/h 34% 0.00in /  0mm 640.0 W/m2
10:42 63.7 °F /  17.6 °C 34.7 °F /  1.5 °C 30.49in /  1032.4hPa ESE 0.9mph /  1.4km/h 14.0mph /  22.5km/h 34% 0.00in /  0mm 650.0 W/m2
10:48 64.0 °F /  17.8 °C 34.3 °F /  1.3 °C 30.48in /  1032.1hPa NE 10.1mph /  16.3km/h 12.0mph /  19.3km/h 33% 0.00in /  0mm 654.0 W/m2
10:52 64.0 °F /  17.8 °C 34.3 °F /  1.3 °C 30.48in /  1032.1hPa ESE 4.9mph /  7.9km/h 13.0mph /  20.9km/h 33% 0.00in /  0mm 661.0 W/m2
10:58 64.2 °F /  17.9 °C 33.8 °F /  1 °C 30.47in /  1031.7hPa ESE 8.1mph /  13km/h 11.0mph /  17.7km/h 32% 0.00in /  0mm 664.0 W/m2
11:00 64.2 °F /  17.9 °C 33.8 °F /  1 °C 30.48in /  1032.1hPa East 4.0mph /  6.4km/h 12.0mph /  19.3km/h 32% 0.00in /  0mm 666.0 W/m2
11:06 64.6 °F /  18.1 °C 34.0 °F /  1.1 °C 30.47in /  1031.7hPa NNE 0.9mph /  1.4km/h 13.0mph /  20.9km/h 32% 0.00in /  0mm 673.0 W/m2
11:13 64.8 °F /  18.2 °C 34.2 °F /  1.2 °C 30.46in /  1031.4hPa ENE 11.0mph /  17.7km/h 13.0mph /  20.9km/h 32% 0.00in /  0mm 677.0 W/m2
11:19 65.1 °F /  18.4 °C 33.8 °F /  1 °C 30.46in /  1031.4hPa ENE 8.1mph /  13km/h 19.0mph /  30.6km/h 31% 0.00in /  0mm 682.0 W/m2
11:25 65.5 °F /  18.6 °C 34.0 °F /  1.1 °C 30.46in /  1031.4hPa East 12.1mph /  19.5km/h 12.1mph /  19.5km/h 31% 0.00in /  0mm 684.0 W/m2
11:31 65.7 °F /  18.7 °C 33.4 °F /  0.8 °C 30.46in /  1031.4hPa NE 4.0mph /  6.4km/h 14.0mph /  22.5km/h 30% 0.00in /  0mm 693.0 W/m2
11:37 65.8 °F /  18.8 °C 33.6 °F /  0.9 °C 30.45in /  1031hPa NE 6.0mph /  9.7km/h 15.0mph /  24.1km/h 30% 0.00in /  0mm 689.0 W/m2
11:43 65.8 °F /  18.8 °C 33.6 °F /  0.9 °C 30.45in /  1031hPa NNE 6.9mph /  11.1km/h 14.0mph /  22.5km/h 30% 0.00in /  0mm 694.0 W/m2
11:49 65.8 °F /  18.8 °C 33.6 °F /  0.9 °C 30.44in /  1030.7hPa East 6.0mph /  9.7km/h 14.0mph /  22.5km/h 30% 0.00in /  0mm 691.0 W/m2
11:55 65.8 °F /  18.8 °C 33.6 °F /  0.9 °C 30.44in /  1030.7hPa SE 4.9mph /  7.9km/h 11.0mph /  17.7km/h 30% 0.00in /  0mm 687.0 W/m2
11:58 66.0 °F /  18.9 °C 34.5 °F /  1.4 °C 30.44in /  1030.7hPa Calm   7.0mph /  11.3km/h 31% 0.00in /  0mm 694.0 W/m2
12:00 66.2 °F /  19 °C 33.8 °F /  1 °C 30.44in /  1030.7hPa ESE 13.0mph /  20.9km/h 13.0mph /  20.9km/h 30% 0.00in /  0mm 691.0 W/m2
12:06 66.4 °F /  19.1 °C 34.0 °F /  1.1 °C 30.44in /  1030.7hPa NNE 6.9mph /  11.1km/h 14.0mph /  22.5km/h 30% 0.00in /  0mm 689.0 W/m2
12:12 66.6 °F /  19.2 °C 33.3 °F /  0.7 °C 30.43in /  1030.4hPa East 0.9mph /  1.4km/h 13.0mph /  20.9km/h 29% 0.00in /  0mm 689.0 W/m2
12:18 66.6 °F /  19.2 °C 34.2 °F /  1.2 °C 30.42in /  1030hPa NE 6.0mph /  9.7km/h 8.0mph /  12.9km/h 30% 0.00in /  0mm 684.0 W/m2
12:24 66.7 °F /  19.3 °C 34.3 °F /  1.3 °C 30.42in /  1030hPa NNE 0.9mph /  1.4km/h 12.0mph /  19.3km/h 30% 0.00in /  0mm 679.0 W/m2
12:26 66.7 °F /  19.3 °C 34.3 °F /  1.3 °C 30.41in /  1029.7hPa Calm   6.0mph /  9.7km/h 30% 0.00in /  0mm 680.0 W/m2
12:32 67.5 °F /  19.7 °C 34.2 °F /  1.2 °C 30.41in /  1029.7hPa Calm   9.0mph /  14.5km/h 29% 0.00in /  0mm 673.0 W/m2
12:38 67.6 °F /  19.8 °C 33.4 °F /  0.8 °C 30.41in /  1029.7hPa ENE 4.9mph /  7.9km/h 10.0mph /  16.1km/h 28% 0.00in /  0mm 670.0 W/m2
12:44 67.6 °F /  19.8 °C 34.2 °F /  1.2 °C 30.41in /  1029.7hPa SE 8.1mph /  13km/h 8.1mph /  13km/h 29% 0.00in /  0mm 666.0 W/m2
12:51 67.8 °F /  19.9 °C 34.3 °F /  1.3 °C 30.41in /  1029.7hPa NW 6.0mph /  9.7km/h 9.0mph /  14.5km/h 29% 0.00in /  0mm 654.0 W/m2
12:57 67.8 °F /  19.9 °C 34.3 °F /  1.3 °C 30.40in /  1029.3hPa ESE 8.1mph /  13km/h 8.1mph /  13km/h 29% 0.00in /  0mm 650.0 W/m2
13:03 68.0 °F /  20 °C 33.6 °F /  0.9 °C 30.39in /  1029hPa ESE 6.0mph /  9.7km/h 12.0mph /  19.3km/h 28% 0.00in /  0mm 642.0 W/m2
13:09 68.2 °F /  20.1 °C 33.8 °F /  1 °C 30.39in /  1029hPa Calm   6.0mph /  9.7km/h 28% 0.00in /  0mm 638.0 W/m2
13:15 68.5 °F /  20.3 °C 34.2 °F /  1.2 °C 30.38in /  1028.7hPa NNE 4.9mph /  7.9km/h 10.0mph /  16.1km/h 28% 0.00in /  0mm 628.0 W/m2
13:21 68.7 °F /  20.4 °C 33.4 °F /  0.8 °C 30.38in /  1028.7hPa SE 2.0mph /  3.2km/h 11.0mph /  17.7km/h 27% 0.00in /  0mm 617.0 W/m2
13:27 68.7 °F /  20.4 °C 33.4 °F /  0.8 °C 30.38in /  1028.7hPa NE 4.9mph /  7.9km/h 10.0mph /  16.1km/h 27% 0.00in /  0mm 606.0 W/m2
13:33 68.5 °F /  20.3 °C 34.2 °F /  1.2 °C 30.38in /  1028.7hPa ESE 10.1mph /  16.3km/h 13.0mph /  20.9km/h 28% 0.00in /  0mm 596.0 W/m2
13:40 68.5 °F /  20.3 °C 34.2 °F /  1.2 °C 30.37in /  1028.3hPa ENE 2.9mph /  4.7km/h 10.0mph /  16.1km/h 28% 0.00in /  0mm 582.0 W/m2
13:46 68.9 °F /  20.5 °C 33.6 °F /  0.9 °C 30.37in /  1028.3hPa NE 8.9mph /  14.3km/h 9.0mph /  14.5km/h 27% 0.00in /  0mm 571.0 W/m2
13:52 69.1 °F /  20.6 °C 33.6 °F /  0.9 °C 30.37in /  1028.3hPa NNE 0.9mph /  1.4km/h 12.0mph /  19.3km/h 27% 0.00in /  0mm 563.0 W/m2
13:58 69.3 °F /  20.7 °C 34.7 °F /  1.5 °C 30.36in /  1028hPa NE 2.0mph /  3.2km/h 11.0mph /  17.7km/h 28% 0.00in /  0mm 548.0 W/m2
14:04 69.1 °F /  20.6 °C 34.5 °F /  1.4 °C 30.36in /  1028hPa ENE 6.9mph /  11.1km/h 8.0mph /  12.9km/h 28% 0.00in /  0mm 536.0 W/m2
14:10 69.1 °F /  20.6 °C 33.6 °F /  0.9 °C 30.36in /  1028hPa East 2.0mph /  3.2km/h 9.0mph /  14.5km/h 27% 0.00in /  0mm 522.0 W/m2
14:16 69.1 °F /  20.6 °C 33.6 °F /  0.9 °C 30.36in /  1028hPa ENE 4.0mph /  6.4km/h 8.0mph /  12.9km/h 27% 0.00in /  0mm 510.0 W/m2
14:22 69.3 °F /  20.7 °C 33.8 °F /  1 °C 30.36in /  1028hPa East 4.9mph /  7.9km/h 9.0mph /  14.5km/h 27% 0.00in /  0mm 494.0 W/m2
14:28 69.3 °F /  20.7 °C 32.9 °F /  0.5 °C 30.36in /  1028hPa NE 4.0mph /  6.4km/h 15.0mph /  24.1km/h 26% 0.00in /  0mm 478.0 W/m2
14:35 69.1 °F /  20.6 °C 33.6 °F /  0.9 °C 30.36in /  1028hPa Calm   4.0mph /  6.4km/h 27% 0.00in /  0mm 462.0 W/m2
14:41 69.3 °F /  20.7 °C 33.8 °F /  1 °C 30.36in /  1028hPa North 6.0mph /  9.7km/h 8.0mph /  12.9km/h 27% 0.00in /  0mm 448.0 W/m2
14:47 69.3 °F /  20.7 °C 33.8 °F /  1 °C 30.35in /  1027.7hPa NNW 2.0mph /  3.2km/h 7.0mph /  11.3km/h 27% 0.00in /  0mm 429.0 W/m2
14:53 69.3 °F /  20.7 °C 33.8 °F /  1 °C 30.35in /  1027.7hPa ENE 8.1mph /  13km/h 8.1mph /  13km/h 27% 0.00in /  0mm 411.0 W/m2
14:59 69.3 °F /  20.7 °C 32.9 °F /  0.5 °C 30.36in /  1028hPa NNE 2.9mph /  4.7km/h 5.0mph /  8km/h 26% 0.00in /  0mm 396.0 W/m2
15:05 69.1 °F /  20.6 °C 32.7 °F /  0.4 °C 30.35in /  1027.7hPa ENE 0.9mph /  1.4km/h 10.0mph /  16.1km/h 26% 0.00in /  0mm 374.0 W/m2
15:11 68.7 °F /  20.4 °C 33.4 °F /  0.8 °C 30.36in /  1028hPa NNE 2.9mph /  4.7km/h 3.0mph /  4.8km/h 27% 0.00in /  0mm 357.0 W/m2
15:17 68.9 °F /  20.5 °C 32.5 °F /  0.3 °C 30.36in /  1028hPa NE 9.0mph /  14.5km/h 9.0mph /  14.5km/h 26% 0.00in /  0mm 343.0 W/m2
15:23 68.7 °F /  20.4 °C 32.4 °F /  0.2 °C 30.36in /  1028hPa ENE 4.9mph /  7.9km/h 9.0mph /  14.5km/h 26% 0.00in /  0mm 323.0 W/m2
15:30 68.5 °F /  20.3 °C 31.3 °F /  -0.4 °C 30.36in /  1028hPa NNW 6.9mph /  11.1km/h 7.0mph /  11.3km/h 25% 0.00in /  0mm 49.0 W/m2
15:36 68.4 °F /  20.2 °C 32.2 °F /  0.1 °C 30.36in /  1028hPa NE 4.9mph /  7.9km/h 5.0mph /  8km/h 26% 0.00in /  0mm 46.0 W/m2
15:42 68.2 °F /  20.1 °C 32.0 °F /  0 °C 30.36in /  1028hPa NNE 6.0mph /  9.7km/h 11.0mph /  17.7km/h 26% 0.00in /  0mm 44.0 W/m2
15:48 67.8 °F /  19.9 °C 30.7 °F /  -0.7 °C 30.36in /  1028hPa ENE 4.0mph /  6.4km/h 10.0mph /  16.1km/h 25% 0.00in /  0mm 42.0 W/m2
15:54 67.6 °F /  19.8 °C 31.5 °F /  -0.3 °C 30.36in /  1028hPa NE 4.0mph /  6.4km/h 6.0mph /  9.7km/h 26% 0.00in /  0mm 40.0 W/m2
16:00 67.5 °F /  19.7 °C 31.5 °F /  -0.3 °C 30.36in /  1028hPa East 4.0mph /  6.4km/h 6.0mph /  9.7km/h 26% 0.00in /  0mm 37.0 W/m2
16:06 67.5 °F /  19.7 °C 31.5 °F /  -0.3 °C 30.37in /  1028.3hPa ESE 4.0mph /  6.4km/h 8.0mph /  12.9km/h 26% 0.00in /  0mm 33.0 W/m2
16:12 66.9 °F /  19.4 °C 30.9 °F /  -0.6 °C 30.37in /  1028.3hPa East 2.0mph /  3.2km/h 7.0mph /  11.3km/h 26% 0.00in /  0mm 28.0 W/m2
16:19 66.7 °F /  19.3 °C 30.7 °F /  -0.7 °C 30.37in /  1028.3hPa ESE 2.9mph /  4.7km/h 5.0mph /  8km/h 26% 0.00in /  0mm 26.0 W/m2
16:25 66.6 °F /  19.2 °C 31.5 °F /  -0.3 °C 30.38in /  1028.7hPa NE 2.0mph /  3.2km/h 8.0mph /  12.9km/h 27% 0.00in /  0mm 23.0 W/m2
16:31 66.2 °F /  19 °C 31.3 °F /  -0.4 °C 30.38in /  1028.7hPa East 6.0mph /  9.7km/h 6.0mph /  9.7km/h 27% 0.00in /  0mm 21.0 W/m2
16:37 66.0 °F /  18.9 °C 31.1 °F /  -0.5 °C 30.38in /  1028.7hPa ENE 2.9mph /  4.7km/h 8.0mph /  12.9km/h 27% 0.00in /  0mm 21.0 W/m2
16:43 65.7 °F /  18.7 °C 30.7 °F /  -0.7 °C 30.38in /  1028.7hPa NE 2.0mph /  3.2km/h 5.0mph /  8km/h 27% 0.00in /  0mm 19.0 W/m2
16:49 65.5 °F /  18.6 °C 31.5 °F /  -0.3 °C 30.39in /  1029hPa ENE 2.0mph /  3.2km/h 9.0mph /  14.5km/h 28% 0.00in /  0mm 18.0 W/m2
16:55 65.1 °F /  18.4 °C 31.3 °F /  -0.4 °C 30.39in /  1029hPa East 0.9mph /  1.4km/h 3.0mph /  4.8km/h 28% 0.00in /  0mm 14.0 W/m2
17:01 64.8 °F /  18.2 °C 30.9 °F /  -0.6 °C 30.39in /  1029hPa ENE 0.9mph /  1.4km/h 4.0mph /  6.4km/h 28% 0.00in /  0mm 12.0 W/m2
17:08 64.6 °F /  18.1 °C 30.7 °F /  -0.7 °C 30.39in /  1029hPa NE 4.0mph /  6.4km/h 4.0mph /  6.4km/h 28% 0.00in /  0mm 9.0 W/m2
17:14 64.0 °F /  17.8 °C 30.2 °F /  -1 °C 30.39in /  1029hPa NE 2.0mph /  3.2km/h 3.0mph /  4.8km/h 28% 0.00in /  0mm 7.0 W/m2
17:20 63.7 °F /  17.6 °C 30.7 °F /  -0.7 °C 30.40in /  1029.3hPa Calm     29% 0.00in /  0mm 0.0 W/m2
17:26 63.3 °F /  17.4 °C 31.3 °F /  -0.4 °C 30.40in /  1029.3hPa Calm   1.0mph /  1.6km/h 30% 0.00in /  0mm 0.0 W/m2
17:32 62.6 °F /  17 °C 30.7 °F /  -0.7 °C 30.40in /  1029.3hPa Calm     30% 0.00in /  0mm 0.0 W/m2
17:38 61.9 °F /  16.6 °C 30.9 °F /  -0.6 °C 30.41in /  1029.7hPa Calm     31% 0.00in /  0mm 0.0 W/m2
17:44 61.2 °F /  16.2 °C 31.1 °F /  -0.5 °C 30.41in /  1029.7hPa Calm     32% 0.00in /  0mm 0.0 W/m2
17:50 60.4 °F /  15.8 °C 30.4 °F /  -0.9 °C 30.42in /  1030hPa Calm   1.0mph /  1.6km/h 32% 0.00in /  0mm 0.0 W/m2
17:57 59.7 °F /  15.4 °C 30.6 °F /  -0.8 °C 30.42in /  1030hPa Calm     33% 0.00in /  0mm 0.0 W/m2
18:03 59.2 °F /  15.1 °C 30.7 °F /  -0.7 °C 30.42in /  1030hPa Calm   1.0mph /  1.6km/h 34% 0.00in /  0mm 0.0 W/m2
18:09 58.5 °F /  14.7 °C 30.2 °F /  -1 °C 30.42in /  1030hPa Calm     34% 0.00in /  0mm 0.0 W/m2
18:15 57.7 °F /  14.3 °C 30.2 °F /  -1 °C 30.42in /  1030hPa Calm   1.0mph /  1.6km/h 35% 0.00in /  0mm 0.0 W/m2
18:21 57.0 °F /  13.9 °C 30.4 °F /  -0.9 °C 30.43in /  1030.4hPa Calm     36% 0.00in /  0mm 0.0 W/m2
18:27 56.5 °F /  13.6 °C 29.8 °F /  -1.2 °C 30.43in /  1030.4hPa Calm   1.0mph /  1.6km/h 36% 0.00in /  0mm 0.0 W/m2
18:33 55.9 °F /  13.3 °C 30.0 °F /  -1.1 °C 30.42in /  1030hPa Calm     37% 0.00in /  0mm 0.0 W/m2
18:39 55.6 °F /  13.1 °C 29.7 °F /  -1.3 °C 30.43in /  1030.4hPa Calm   1.0mph /  1.6km/h 37% 0.00in /  0mm 0.0 W/m2
18:46 55.0 °F /  12.8 °C 29.8 °F /  -1.2 °C 30.43in /  1030.4hPa Calm     38% 0.00in /  0mm 0.0 W/m2
18:52 54.7 °F /  12.6 °C 29.5 °F /  -1.4 °C 30.43in /  1030.4hPa Calm     38% 0.00in /  0mm 0.0 W/m2
18:58 54.1 °F /  12.3 °C 29.7 °F /  -1.3 °C 30.43in /  1030.4hPa Calm   1.0mph /  1.6km/h 39% 0.00in /  0mm 0.0 W/m2
19:04 53.8 °F /  12.1 °C 29.5 °F /  -1.4 °C 30.44in /  1030.7hPa Calm   1.0mph /  1.6km/h 39% 0.00in /  0mm 0.0 W/m2
19:10 53.4 °F /  11.9 °C 29.1 °F /  -1.6 °C 30.44in /  1030.7hPa Calm     39% 0.00in /  0mm 0.0 W/m2
19:16 53.1 °F /  11.7 °C 28.8 °F /  -1.8 °C 30.44in /  1030.7hPa Calm     39% 0.00in /  0mm 0.0 W/m2
19:22 52.9 °F /  11.6 °C 28.6 °F /  -1.9 °C 30.44in /  1030.7hPa Calm   1.0mph /  1.6km/h 39% 0.00in /  0mm 0.0 W/m2
19:29 52.5 °F /  11.4 °C 28.2 °F /  -2.1 °C 30.44in /  1030.7hPa Calm   1.0mph /  1.6km/h 39% 0.00in /  0mm 0.0 W/m2
19:35 52.3 °F /  11.3 °C 28.8 °F /  -1.8 °C 30.44in /  1030.7hPa Calm   1.0mph /  1.6km/h 40% 0.00in /  0mm 0.0 W/m2
19:41 52.0 °F /  11.1 °C 28.4 °F /  -2 °C 30.44in /  1030.7hPa Calm   1.0mph /  1.6km/h 40% 0.00in /  0mm 0.0 W/m2
19:47 51.8 °F /  11 °C 28.2 °F /  -2.1 °C 30.44in /  1030.7hPa NE 0.9mph /  1.4km/h 2.0mph /  3.2km/h 40% 0.00in /  0mm 0.0 W/m2
19:53 51.4 °F /  10.8 °C 27.9 °F /  -2.3 °C 30.45in /  1031hPa Calm   1.0mph /  1.6km/h 40% 0.00in /  0mm 0.0 W/m2
19:59 51.3 °F /  10.7 °C 27.7 °F /  -2.4 °C 30.45in /  1031hPa NE 0.9mph /  1.4km/h 1.0mph /  1.6km/h 40% 0.00in /  0mm 0.0 W/m2
20:06 51.1 °F /  10.6 °C 27.7 °F /  -2.4 °C 30.45in /  1031hPa Calm   1.0mph /  1.6km/h 40% 0.00in /  0mm 0.0 W/m2
20:12 51.1 °F /  10.6 °C 27.7 °F /  -2.4 °C 30.45in /  1031hPa Calm   3.0mph /  4.8km/h 40% 0.00in /  0mm 0.0 W/m2
20:18 51.1 °F /  10.6 °C 27.7 °F /  -2.4 °C 30.45in /  1031hPa Calm   3.0mph /  4.8km/h 40% 0.00in /  0mm 0.0 W/m2
20:24 50.7 °F /  10.4 °C 27.3 °F /  -2.6 °C 30.45in /  1031hPa ENE 0.9mph /  1.4km/h 2.0mph /  3.2km/h 40% 0.00in /  0mm 0.0 W/m2
20:30 50.7 °F /  10.4 °C 27.9 °F /  -2.3 °C 30.46in /  1031.4hPa Calm   1.0mph /  1.6km/h 41% 0.00in /  0mm 0.0 W/m2
20:36 50.4 °F /  10.2 °C 27.5 °F /  -2.5 °C 30.45in /  1031hPa Calm   2.0mph /  3.2km/h 41% 0.00in /  0mm 0.0 W/m2
20:42 50.2 °F /  10.1 °C 27.3 °F /  -2.6 °C 30.46in /  1031.4hPa Calm   1.0mph /  1.6km/h 41% 0.00in /  0mm 0.0 W/m2
20:49 49.8 °F /  9.9 °C 27.1 °F /  -2.7 °C 30.46in /  1031.4hPa Calm     41% 0.00in /  0mm 0.0 W/m2
20:55 49.6 °F /  9.8 °C 27.5 °F /  -2.5 °C 30.46in /  1031.4hPa Calm   3.0mph /  4.8km/h 42% 0.00in /  0mm 0.0 W/m2
21:01 49.5 °F /  9.7 °C 26.8 °F /  -2.9 °C 30.46in /  1031.4hPa Calm   3.0mph /  4.8km/h 41% 0.00in /  0mm 0.0 W/m2
21:07 49.3 °F /  9.6 °C 27.1 °F /  -2.7 °C 30.46in /  1031.4hPa East 0.9mph /  1.4km/h 5.0mph /  8km/h 42% 0.00in /  0mm 0.0 W/m2
21:13 49.1 °F /  9.5 °C 27.0 °F /  -2.8 °C 30.46in /  1031.4hPa Calm   2.0mph /  3.2km/h 42% 0.00in /  0mm 0.0 W/m2
21:19 48.9 °F /  9.4 °C 26.8 °F /  -2.9 °C 30.46in /  1031.4hPa Calm   3.0mph /  4.8km/h 42% 0.00in /  0mm 0.0 W/m2
21:25 48.7 °F /  9.3 °C 26.6 °F /  -3 °C 30.46in /  1031.4hPa Calm   1.0mph /  1.6km/h 42% 0.00in /  0mm 0.0 W/m2
21:31 48.7 °F /  9.3 °C 26.6 °F /  -3 °C 30.46in /  1031.4hPa Calm   3.0mph /  4.8km/h 42% 0.00in /  0mm 0.0 W/m2
21:37 48.6 °F /  9.2 °C 26.4 °F /  -3.1 °C 30.46in /  1031.4hPa East 0.9mph /  1.4km/h 2.0mph /  3.2km/h 42% 0.00in /  0mm 0.0 W/m2
21:43 48.4 °F /  9.1 °C 26.4 °F /  -3.1 °C 30.46in /  1031.4hPa East 0.9mph /  1.4km/h 3.0mph /  4.8km/h 42% 0.00in /  0mm 0.0 W/m2
21:49 48.4 °F /  9.1 °C 26.4 °F /  -3.1 °C 30.46in /  1031.4hPa Calm   2.0mph /  3.2km/h 42% 0.00in /  0mm 0.0 W/m2
21:55 48.4 °F /  9.1 °C 26.4 °F /  -3.1 °C 30.46in /  1031.4hPa Calm   1.0mph /  1.6km/h 42% 0.00in /  0mm 0.0 W/m2
22:01 48.4 °F /  9.1 °C 27.0 °F /  -2.8 °C 30.46in /  1031.4hPa Calm   2.0mph /  3.2km/h 43% 0.00in /  0mm 0.0 W/m2
22:07 48.0 °F /  8.9 °C 26.1 °F /  -3.3 °C 30.46in /  1031.4hPa Calm     42% 0.00in /  0mm 0.0 W/m2
22:14 48.0 °F /  8.9 °C 26.6 °F /  -3 °C 30.46in /  1031.4hPa Calm   1.0mph /  1.6km/h 43% 0.00in /  0mm 0.0 W/m2
22:20 47.8 °F /  8.8 °C 26.4 °F /  -3.1 °C 30.46in /  1031.4hPa Calm   1.0mph /  1.6km/h 43% 0.00in /  0mm 0.0 W/m2
22:26 47.8 °F /  8.8 °C 26.4 °F /  -3.1 °C 30.46in /  1031.4hPa Calm   2.0mph /  3.2km/h 43% 0.00in /  0mm 0.0 W/m2
22:32 47.7 °F /  8.7 °C 26.2 °F /  -3.2 °C 30.46in /  1031.4hPa Calm     43% 0.00in /  0mm 0.0 W/m2
22:38 47.5 °F /  8.6 °C 26.1 °F /  -3.3 °C 30.46in /  1031.4hPa Calm   3.0mph /  4.8km/h 43% 0.00in /  0mm 0.0 W/m2
22:44 47.5 °F /  8.6 °C 26.1 °F /  -3.3 °C 30.46in /  1031.4hPa Calm   1.0mph /  1.6km/h 43% 0.00in /  0mm 0.0 W/m2
22:50 47.1 °F /  8.4 °C 26.2 °F /  -3.2 °C 30.46in /  1031.4hPa Calm   2.0mph /  3.2km/h 44% 0.00in /  0mm 0.0 W/m2
22:56 47.1 °F /  8.4 °C 26.2 °F /  -3.2 °C 30.46in /  1031.4hPa Calm   1.0mph /  1.6km/h 44% 0.00in /  0mm 0.0 W/m2
23:02 46.9 °F /  8.3 °C 26.2 °F /  -3.2 °C 30.46in /  1031.4hPa Calm   1.0mph /  1.6km/h 44% 0.00in /  0mm 0.0 W/m2
23:08 46.8 °F /  8.2 °C 26.6 °F /  -3 °C 30.46in /  1031.4hPa Calm   1.0mph /  1.6km/h 45% 0.00in /  0mm 0.0 W/m2
23:14 46.8 °F /  8.2 °C 26.6 °F /  -3 °C 30.46in /  1031.4hPa Calm   1.0mph /  1.6km/h 45% 0.00in /  0mm 0.0 W/m2
23:20 46.8 °F /  8.2 °C 26.6 °F /  -3 °C 30.46in /  1031.4hPa Calm   2.0mph /  3.2km/h 45% 0.00in /  0mm 0.0 W/m2
23:27 46.6 °F /  8.1 °C 26.4 °F /  -3.1 °C 30.46in /  1031.4hPa Calm     45% 0.00in /  0mm 0.0 W/m2
23:33 46.2 °F /  7.9 °C 26.6 °F /  -3 °C 30.46in /  1031.4hPa Calm   2.0mph /  3.2km/h 46% 0.00in /  0mm 0.0 W/m2
23:39 46.2 °F /  7.9 °C 26.6 °F /  -3 °C 30.46in /  1031.4hPa Calm     46% 0.00in /  0mm 0.0 W/m2
23:45 46.0 °F /  7.8 °C 26.4 °F /  -3.1 °C 30.46in /  1031.4hPa Calm     46% 0.00in /  0mm 0.0 W/m2
23:51 45.9 °F /  7.7 °C 26.8 °F /  -2.9 °C 30.46in /  1031.4hPa Calm     47% 0.00in /  0mm 0.0 W/m2
23:57 45.9 °F /  7.7 °C 26.8 °F /  -2.9 °C 30.46in /  1031.4hPa Calm     47% 0.00in /  0mm 0.0 W/m2
Olympia, Windhoek, Namibia
Compliments of Weather Underground - 3 mb